Search for airport 
image banner adimage banner adimage banner ad
image banner ad

12PS - Siple

Located in Lewisville, United States

ICAO - 12PS, IATA -

Data provided by Airmate  

General information

Coordinates: N39°43'26" W75°52'53"
Elevation is 419 feet MSL.
 
View others Airports in Pennsylvania

Operational data

Special qualification required
Current time UTC:
Current local time:
Weather at : KILG - New Castle ( 24 km )
METAR: KILG 182351Z 17008KT 10SM CLR 20/10 A3027 RMK AO2 SLP250 T02000100 10267 20200 55006
TAF: KILG 182320Z 1900/1924 23010KT P6SM SKC FM190800 VRB03KT P6SM SKC FM191500 31005KT P6SM SKC
View NOTAMs / SUP AIP / TFR affecting this airport [VIEW]
Communications frequencies: [VIEW]

Runways:

Airport contact information

Address: Lewisville United States

Satellite view of 12PS